Time;durP1;ratioP1;P1;durP2;ratioP2;P2;SDS_P1;SDS_P2;PMS_P1;PMS_P2;Temp;Humidity;BMP_temperature;BMP_pressure;BME280_temperature;BME280_humidity;BME280_pressure;Samples;Min_cycle;Max_cycle;Signal;HPM_P1;HPM_P2
2023/12/18 00:02:15;;;;;;;1.40;1.03;;;;;;;1.37;100.00;101252.84;5073009;28;20616;-64
2023/12/18 00:04:42;;;;;;;1.60;1.60;;;;;;;1.40;100.00;101257.13;5070826;28;20203;-63
2023/12/18 00:07:10;;;;;;;0.73;0.73;;;;;;;1.39;100.00;101250.38;5070787;28;20195;-64
2023/12/18 00:09:38;;;;;;;0.80;0.80;;;;;;;1.38;100.00;101243.59;5070289;28;20630;-64
2023/12/18 00:12:05;;;;;;;0.90;0.90;;;;;;;1.38;100.00;101236.88;5070706;28;20211;-63
2023/12/18 00:14:32;;;;;;;2.20;1.23;;;;;;;1.35;100.00;101238.44;5072976;28;20760;-64
2023/12/18 00:16:59;;;;;;;1.63;1.53;;;;;;;1.33;100.00;101234.97;5070520;28;20250;-63
2023/12/18 00:19:25;;;;;;;1.00;1.00;;;;;;;1.33;100.00;101234.97;5070487;28;20270;-64
2023/12/18 00:21:52;;;;;;;3.03;1.43;;;;;;;1.37;100.00;101226.72;5070216;28;20245;-64
2023/12/18 00:24:20;;;;;;;2.30;1.73;;;;;;;1.38;100.00;101224.25;5070368;28;20195;-64
2023/12/18 00:26:47;;;;;;;1.37;1.37;;;;;;;1.39;100.00;101220.06;5071726;28;20694;-63
2023/12/18 00:29:13;;;;;;;2.87;2.80;;;;;;;1.31;100.00;101206.28;5071252;28;20192;-63
2023/12/18 00:31:40;;;;;;;1.83;1.73;;;;;;;1.41;100.00;101223.50;5069539;28;20277;-63
2023/12/18 00:34:07;;;;;;;0.70;0.70;;;;;;;1.40;100.00;101226.81;5070782;28;20208;-64
2023/12/18 00:36:33;;;;;;;1.07;1.00;;;;;;;1.43;100.00;101237.03;5070681;28;20249;-63
2023/12/18 00:39:00;;;;;;;0.67;0.67;;;;;;;1.52;100.00;101232.31;5071178;28;20196;-64
2023/12/18 00:41:28;;;;;;;1.73;1.63;;;;;;;1.52;100.00;101237.34;5070321;28;20246;-63
2023/12/18 00:43:55;;;;;;;0.77;0.77;;;;;;;1.57;100.00;101235.88;5070132;28;20200;-64
2023/12/18 00:46:22;;;;;;;0.60;0.60;;;;;;;1.59;100.00;101232.59;5070625;28;20192;-64
2023/12/18 00:48:48;;;;;;;0.80;0.80;;;;;;;1.70;100.00;101235.50;5070082;28;20195;-64
2023/12/18 00:51:15;;;;;;;1.17;1.17;;;;;;;1.72;100.00;101235.53;5071087;28;20235;-63
2023/12/18 00:53:42;;;;;;;1.20;1.20;;;;;;;1.73;100.00;101235.59;5070130;28;20202;-64
2023/12/18 00:56:09;;;;;;;1.40;0.87;;;;;;;1.76;100.00;101235.69;5071013;28;20269;-63
2023/12/18 00:58:37;;;;;;;1.07;1.07;;;;;;;1.68;100.00;101229.50;5070888;28;20204;-63
2023/12/18 01:01:04;;;;;;;1.63;1.53;;;;;;;1.73;100.00;101227.16;5069777;28;20579;-64
2023/12/18 01:03:32;;;;;;;0.70;0.70;;;;;;;1.67;100.00;101215.16;5071252;28;20196;-64
2023/12/18 01:05:58;;;;;;;1.13;1.13;;;;;;;1.77;100.00;101219.72;5070015;28;20631;-63
2023/12/18 01:08:25;;;;;;;1.00;1.00;;;;;;;1.72;100.00;101210.25;5066109;28;20265;-64
2023/12/18 01:10:52;;;;;;;0.60;0.60;;;;;;;1.80;100.00;101216.44;5070797;28;20207;-63
2023/12/18 01:13:18;;;;;;;0.70;0.70;;;;;;;1.86;100.00;101211.59;5069837;28;20345;-63
2023/12/18 01:15:47;;;;;;;0.97;0.97;;;;;;;1.88;100.00;101203.22;5072559;28;20192;-63
2023/12/18 01:18:13;;;;;;;1.73;1.73;;;;;;;1.95;100.00;101201.78;5073274;28;20253;-63
2023/12/18 01:20:40;;;;;;;1.10;1.10;;;;;;;1.91;100.00;101200.81;5073839;28;20208;-63
2023/12/18 01:23:07;;;;;;;0.73;0.73;;;;;;;1.90;100.00;101195.72;5073779;28;20238;-63
2023/12/18 01:25:33;;;;;;;0.67;0.67;;;;;;;1.92;100.00;101200.00;5073389;28;20645;-63
2023/12/18 01:28:00;;;;;;;0.80;0.80;;;;;;;1.90;100.00;101189.00;5076097;28;20249;-63
2023/12/18 01:30:27;;;;;;;0.60;0.60;;;;;;;1.86;100.00;101193.88;5075093;28;20200;-64
2023/12/18 01:32:55;;;;;;;1.20;1.20;;;;;;;1.82;100.00;101180.28;5073512;28;20216;-63
2023/12/18 01:35:22;;;;;;;1.23;1.23;;;;;;;1.71;100.00;101174.03;5073402;28;20692;-63
2023/12/18 01:37:49;;;;;;;0.87;0.87;;;;;;;1.61;100.00;101166.06;5075983;28;20227;-63
2023/12/18 01:40:15;;;;;;;0.90;0.90;;;;;;;1.51;100.00;101157.31;5073068;28;20200;-63
2023/12/18 01:42:44;;;;;;;0.80;0.80;;;;;;;1.45;100.00;101147.88;5073107;28;20235;-63
2023/12/18 01:45:11;;;;;;;1.17;1.17;;;;;;;1.45;100.00;101154.56;5073587;28;20204;-63
2023/12/18 01:47:38;;;;;;;1.07;1.07;;;;;;;1.43;100.00;101156.16;5074123;28;20249;-63
2023/12/18 01:50:07;;;;;;;0.60;0.60;;;;;;;1.42;100.00;101150.25;5073154;28;20250;-63
2023/12/18 01:52:35;;;;;;;4.80;0.97;;;;;;;1.41;100.00;101153.63;5071650;28;20219;-63
2023/12/18 01:55:03;;;;;;;0.83;0.83;;;;;;;1.32;100.00;101135.63;5073342;28;20664;-63
2023/12/18 01:57:32;;;;;;;0.93;0.93;;;;;;;1.35;100.00;101147.47;5075403;28;20664;-63
2023/12/18 01:59:59;;;;;;;0.87;0.87;;;;;;;1.37;100.00;101151.78;5074127;28;20657;-63
2023/12/18 02:02:26;;;;;;;1.00;1.00;;;;;;;1.40;100.00;101151.00;5073605;28;20200;-63
2023/12/18 02:04:53;;;;;;;0.70;0.70;;;;;;;1.37;100.00;101146.72;5071928;28;20204;-63
2023/12/18 02:07:21;;;;;;;0.70;0.70;;;;;;;1.39;100.00;101149.31;5072667;28;20196;-63
2023/12/18 02:09:48;;;;;;;0.63;0.63;;;;;;;1.44;100.00;101147.78;5071538;28;20203;-63
2023/12/18 02:12:15;;;;;;;1.57;1.57;;;;;;;1.34;100.00;101130.59;5073215;28;20211;-62
2023/12/18 02:14:42;;;;;;;0.80;0.80;;;;;;;1.48;100.00;101149.63;5072342;28;20192;-63
2023/12/18 02:17:09;;;;;;;0.60;0.60;;;;;;;1.45;100.00;101147.00;5072609;28;20204;-63
2023/12/18 02:19:36;;;;;;;0.67;0.67;;;;;;;1.46;100.00;101147.03;5069986;28;20261;-62
2023/12/18 02:22:02;;;;;;;0.60;0.60;;;;;;;1.46;100.00;101146.16;5073356;28;20626;-63
2023/12/18 02:24:30;;;;;;;0.60;0.60;;;;;;;1.44;100.00;101147.78;5073493;28;20200;-63
2023/12/18 02:26:59;;;;;;;1.07;1.07;;;;;;;1.41;100.00;101142.63;5072906;28;20257;-63
2023/12/18 02:29:26;;;;;;;1.00;1.00;;;;;;;1.35;100.00;101142.44;5078013;28;20192;-63
2023/12/18 02:31:53;;;;;;;1.00;1.00;;;;;;;1.33;100.00;101138.97;5072994;28;20204;-63
2023/12/18 02:34:19;;;;;;;1.23;1.23;;;;;;;1.19;100.00;101125.03;5072268;28;20200;-63
2023/12/18 02:36:48;;;;;;;1.30;1.30;;;;;;;1.30;100.00;101142.25;5074207;28;20207;-63
2023/12/18 02:39:15;;;;;;;2.77;1.13;;;;;;;1.38;100.00;101142.53;5072293;28;20335;-63
2023/12/18 02:41:43;;;;;;;0.70;0.70;;;;;;;1.39;100.00;101144.25;5071671;28;20257;-63
2023/12/18 02:44:10;;;;;;;0.70;0.70;;;;;;;1.43;100.00;101151.97;5071891;28;20195;-63
2023/12/18 02:46:37;;;;;;;1.07;1.07;;;;;;;1.45;100.00;101150.38;5071685;28;20287;-63
2023/12/18 02:49:04;;;;;;;0.70;0.70;;;;;;;1.51;100.00;101142.16;5072631;28;20230;-63
2023/12/18 02:51:30;;;;;;;0.87;0.87;;;;;;;1.54;100.00;101139.72;5072204;28;20230;-63
2023/12/18 02:53:57;;;;;;;1.17;1.17;;;;;;;1.59;100.00;101138.19;5071977;28;20277;-63
2023/12/18 02:56:25;;;;;;;0.93;0.93;;;;;;;1.65;100.00;101133.34;5070558;28;20196;-63
2023/12/18 02:58:54;;;;;;;0.80;0.80;;;;;;;1.60;100.00;101119.69;5073797;28;20196;-63
2023/12/18 03:01:21;;;;;;;0.80;0.80;;;;;;;1.74;100.00;101138.72;5071807;28;20200;-63
2023/12/18 03:03:48;;;;;;;1.07;1.07;;;;;;;1.76;100.00;101147.22;5071741;28;20204;-62
2023/12/18 03:06:15;;;;;;;0.80;0.80;;;;;;;1.80;100.00;101145.63;5071411;28;20250;-63
2023/12/18 03:08:42;;;;;;;0.80;0.80;;;;;;;1.80;100.00;101153.22;5071750;28;20208;-63
2023/12/18 03:11:08;;;;;;;0.87;0.87;;;;;;;1.80;100.00;101160.81;5070586;28;20228;-63
2023/12/18 03:13:35;;;;;;;0.60;0.60;;;;;;;1.81;100.00;101155.78;5072782;28;20219;-63
2023/12/18 03:16:03;;;;;;;1.10;1.10;;;;;;;1.80;100.00;101159.16;5071481;28;20199;-63
2023/12/18 03:18:30;;;;;;;0.70;0.70;;;;;;;1.78;100.00;101150.63;5071362;28;20208;-63
2023/12/18 03:20:57;;;;;;;0.63;0.63;;;;;;;1.68;100.00;101150.31;5071882;28;20253;-62
2023/12/18 03:23:23;;;;;;;1.23;1.23;;;;;;;1.59;100.00;101154.22;5071257;28;20221;-64
2023/12/18 03:25:50;;;;;;;0.90;0.90;;;;;;;1.54;100.00;101153.22;5072613;28;20208;-63
2023/12/18 03:28:18;;;;;;;1.03;1.03;;;;;;;1.49;100.00;101141.22;5072982;28;20191;-63
2023/12/18 03:30:45;;;;;;;0.70;0.70;;;;;;;1.41;100.00;101135.06;5070903;28;20196;-63
2023/12/18 03:33:13;;;;;;;0.90;0.90;;;;;;;1.35;100.00;101132.31;5071111;28;20269;-63
2023/12/18 03:35:39;;;;;;;0.80;0.80;;;;;;;1.28;100.00;101130.38;5070593;28;20570;-63
2023/12/18 03:38:06;;;;;;;0.60;0.60;;;;;;;1.18;100.00;101135.91;5072514;28;20192;-63
2023/12/18 03:40:33;;;;;;;0.67;0.67;;;;;;;1.14;100.00;101141.66;5070824;28;20208;-64
2023/12/18 03:42:59;;;;;;;1.90;1.90;;;;;;;1.16;100.00;101127.44;5070865;28;20233;-63
2023/12/18 03:45:26;;;;;;;1.00;1.00;;;;;;;1.13;100.00;101129.88;5071136;28;20250;-63
2023/12/18 03:47:53;;;;;;;0.50;0.50;;;;;;;1.10;100.00;101114.59;5070661;28;20200;-63
2023/12/18 03:50:21;;;;;;;0.77;0.77;;;;;;;1.14;100.00;101126.50;5072743;28;20291;-63
2023/12/18 03:52:48;;;;;;;1.17;1.17;;;;;;;1.19;100.00;101115.78;5072069;28;20654;-63
2023/12/18 03:55:15;;;;;;;1.33;1.33;;;;;;;1.15;100.00;101113.09;5073817;28;20757;-63
2023/12/18 03:57:41;;;;;;;1.17;1.17;;;;;;;1.15;100.00;101113.09;5070611;28;20748;-63
2023/12/18 04:00:09;;;;;;;0.90;0.90;;;;;;;1.18;100.00;101108.13;5070894;28;20196;-63
2023/12/18 04:02:36;;;;;;;0.70;0.70;;;;;;;1.23;100.00;101109.16;5070441;28;20200;-63
2023/12/18 04:05:03;;;;;;;1.10;1.10;;;;;;;1.28;100.00;101110.19;5070354;28;20250;-63
2023/12/18 04:07:31;;;;;;;0.70;0.70;;;;;;;1.28;100.00;101121.16;5070634;28;20204;-63
2023/12/18 04:09:58;;;;;;;0.70;0.70;;;;;;;1.32;100.00;101122.97;5071282;28;20200;-63
2023/12/18 04:12:25;;;;;;;1.03;1.03;;;;;;;1.33;100.00;101118.75;5070600;28;20598;-63
2023/12/18 04:14:51;;;;;;;0.60;0.60;;;;;;;1.42;100.00;101126.69;5070333;28;20234;-63
2023/12/18 04:17:18;;;;;;;0.70;0.70;;;;;;;1.44;100.00;101130.09;5070574;28;20667;-63
2023/12/18 04:19:45;;;;;;;1.27;1.27;;;;;;;1.42;100.00;101126.69;5070342;28;20192;-63
2023/12/18 04:22:12;;;;;;;0.90;0.90;;;;;;;1.45;100.00;101116.66;5070892;28;20230;-63
2023/12/18 04:24:40;;;;;;;0.70;0.70;;;;;;;1.43;100.00;101115.75;5072269;28;20199;-63
2023/12/18 04:27:06;;;;;;;0.70;0.70;;;;;;;1.45;100.00;101120.06;5072435;28;20204;-63
2023/12/18 04:29:33;;;;;;;1.07;1.07;;;;;;;1.44;100.00;101120.84;5070451;28;20634;-63
2023/12/18 04:32:00;;;;;;;1.10;1.10;;;;;;;1.47;100.00;101128.53;5069790;28;20203;-63
2023/12/18 04:34:27;;;;;;;0.60;0.60;;;;;;;1.49;100.00;101126.06;5070737;28;20277;-63
2023/12/18 04:36:53;;;;;;;0.70;0.70;;;;;;;1.47;100.00;101122.63;5069978;28;20204;-63
2023/12/18 04:39:20;;;;;;;0.90;0.90;;;;;;;1.48;100.00;101114.25;5069863;28;20642;-63
2023/12/18 04:41:48;;;;;;;0.60;0.60;;;;;;;1.48;100.00;101119.31;5070085;28;20618;-63
2023/12/18 04:44:15;;;;;;;1.10;1.10;;;;;;;1.54;100.00;101119.50;5069953;28;20192;-64
2023/12/18 04:46:41;;;;;;;0.67;0.67;;;;;;;1.58;100.00;101121.34;5070504;28;20204;-63
2023/12/18 04:49:09;;;;;;;0.80;0.80;;;;;;;1.60;100.00;101119.69;5071085;28;20196;-63
2023/12/18 04:51:35;;;;;;;0.80;0.80;;;;;;;1.61;100.00;101126.50;5071784;28;20223;-63
2023/12/18 04:54:02;;;;;;;0.73;0.73;;;;;;;1.62;100.00;101124.81;5075952;28;20219;-63
2023/12/18 04:56:29;;;;;;;0.70;0.70;;;;;;;1.63;100.00;101129.91;5075198;28;20204;-63
2023/12/18 04:58:57;;;;;;;1.03;1.03;;;;;;;1.62;100.00;101137.47;5076608;28;20192;-63
2023/12/18 05:01:24;;;;;;;0.83;0.83;;;;;;;1.65;100.00;101143.44;5076197;28;20274;-63
2023/12/18 05:03:50;;;;;;;0.97;0.97;;;;;;;1.68;100.00;101137.66;5082023;28;20207;-63
2023/12/18 05:06:21;;;;;;;0.73;0.73;;;;;;;1.70;100.00;101136.03;5080502;28;20679;-63
2023/12/18 05:08:47;;;;;;;0.77;0.77;;;;;;;1.69;100.00;101135.16;5073917;28;20196;-63
2023/12/18 05:11:17;;;;;;;0.70;0.70;;;;;;;1.68;100.00;101133.44;5076691;28;20246;-65
2023/12/18 05:13:43;;;;;;;1.13;1.00;;;;;;;1.67;100.00;101126.69;5079393;28;20211;-65
2023/12/18 05:16:11;;;;;;;1.43;1.43;;;;;;;1.68;100.00;101122.50;5074230;28;20196;-66
2023/12/18 05:18:38;;;;;;;0.80;0.80;;;;;;;1.59;100.00;101116.31;5080260;28;20200;-65
2023/12/18 05:21:05;;;;;;;1.00;1.00;;;;;;;1.51;100.00;101105.09;5084502;28;20739;-65
2023/12/18 05:23:32;;;;;;;0.60;0.60;;;;;;;1.55;100.00;101122.06;5075353;28;20269;-65
2023/12/18 05:25:59;;;;;;;0.83;0.83;;;;;;;1.59;100.00;101118.84;5073643;28;20200;-65
2023/12/18 05:28:26;;;;;;;0.77;0.77;;;;;;;1.60;100.00;101114.66;5073086;28;20203;-65
2023/12/18 05:30:53;;;;;;;0.60;0.60;;;;;;;1.61;100.00;101121.44;5072159;28;20261;-66
2023/12/18 05:33:21;;;;;;;2.47;1.87;;;;;;;1.57;100.00;101124.66;5072973;28;20212;-65
2023/12/18 05:35:48;;;;;;;0.70;0.70;;;;;;;1.59;100.00;101113.78;5074318;28;20204;-65
2023/12/18 05:38:15;;;;;;;0.83;0.83;;;;;;;1.58;100.00;101116.28;5073692;28;20196;-65
2023/12/18 05:40:42;;;;;;;0.60;0.60;;;;;;;1.59;100.00;101107.88;5073255;28;20281;-65
2023/12/18 05:43:08;;;;;;;0.77;0.77;;;;;;;1.62;100.00;101112.19;5073559;28;20246;-65
2023/12/18 05:45:35;;;;;;;0.60;0.60;;;;;;;1.62;100.00;101097.84;5073622;28;20309;-65
2023/12/18 05:48:02;;;;;;;0.70;0.70;;;;;;;1.61;100.00;101103.75;5072765;28;20256;-65
2023/12/18 05:50:31;;;;;;;0.97;0.97;;;;;;;1.61;100.00;101101.22;5073371;28;20253;-66
2023/12/18 05:52:58;;;;;;;1.03;1.03;;;;;;;1.64;100.00;101096.25;5073627;28;20238;-65
2023/12/18 05:55:24;;;;;;;0.50;0.50;;;;;;;1.63;100.00;101089.47;5073585;28;20671;-65
2023/12/18 05:57:51;;;;;;;0.83;0.83;;;;;;;1.61;100.00;101090.22;5076566;28;20261;-65
2023/12/18 06:00:19;;;;;;;0.83;0.83;;;;;;;1.61;100.00;101096.16;5075075;28;20199;-65
2023/12/18 06:02:45;;;;;;;0.70;0.70;;;;;;;1.60;100.00;101094.44;5074347;28;20616;-65
2023/12/18 06:05:15;;;;;;;1.30;1.30;;;;;;;1.57;100.00;101094.31;5073235;28;20208;-65
2023/12/18 06:07:43;;;;;;;0.70;0.70;;;;;;;1.62;100.00;101091.97;5073110;28;20204;-65
2023/12/18 06:10:10;;;;;;;0.83;0.83;;;;;;;1.62;100.00;101091.97;5072563;28;20664;-66
2023/12/18 06:12:37;;;;;;;0.60;0.60;;;;;;;1.62;100.00;101092.78;5073966;28;20204;-66
2023/12/18 06:15:05;;;;;;;0.50;0.50;;;;;;;1.66;100.00;101099.69;5072502;28;20219;-65
2023/12/18 06:17:32;;;;;;;0.77;0.77;;;;;;;1.59;100.00;101078.41;5074636;28;20269;-63
2023/12/18 06:19:59;;;;;;;0.70;0.70;;;;;;;1.61;100.00;101081.00;5073768;28;20199;-60
2023/12/18 06:22:25;;;;;;;1.17;1.17;;;;;;;1.66;100.00;101083.66;5070058;28;20634;-60
2023/12/18 06:24:53;;;;;;;0.90;0.90;;;;;;;1.74;100.00;101088.16;5075389;28;20656;-60
2023/12/18 06:27:20;;;;;;;1.00;1.00;;;;;;;1.78;100.00;101084.06;5073725;28;20737;-60
2023/12/18 06:29:47;;;;;;;1.03;1.03;;;;;;;1.78;100.00;101084.06;5072951;28;20204;-60
2023/12/18 06:32:14;;;;;;;1.23;1.23;;;;;;;1.81;100.00;101082.47;5073389;28;20676;-60
2023/12/18 06:34:41;;;;;;;0.80;0.80;;;;;;;1.85;100.00;101086.81;5070719;28;20314;-60
2023/12/18 06:37:07;;;;;;;0.93;0.93;;;;;;;1.91;100.00;101086.13;5068887;28;20608;-60
2023/12/18 06:39:34;;;;;;;1.07;1.07;;;;;;;2.01;100.00;101085.63;5064458;28;20196;-65
2023/12/18 06:42:02;;;;;;;1.00;1.00;;;;;;;2.04;100.00;101081.53;5066144;28;20561;-66
2023/12/18 06:44:29;;;;;;;2.10;0.87;;;;;;;2.08;100.00;101078.28;5070916;28;20739;-65
2023/12/18 06:46:56;;;;;;;1.73;1.03;;;;;;;2.10;100.00;101089.28;5068585;28;20257;-65
2023/12/18 06:49:22;;;;;;;0.60;0.60;;;;;;;2.16;100.00;101092.84;5065912;28;20659;-63
2023/12/18 06:51:50;;;;;;;0.50;0.50;;;;;;;2.19;100.00;101088.72;5068310;28;20537;-66
2023/12/18 06:54:17;;;;;;;1.20;1.20;;;;;;;2.22;100.00;101093.03;5065516;28;20323;-65
2023/12/18 06:56:44;;;;;;;0.63;0.63;;;;;;;2.19;100.00;101092.94;5069076;28;20265;-66
2023/12/18 06:59:12;;;;;;;0.70;0.70;;;;;;;2.24;100.00;101101.50;5067941;28;20208;-66
2023/12/18 07:01:38;;;;;;;0.80;0.80;;;;;;;2.29;100.00;101095.78;5066512;28;20668;-66
2023/12/18 07:04:06;;;;;;;0.60;0.60;;;;;;;2.25;100.00;101083.00;5068990;28;20208;-66
2023/12/18 07:06:33;;;;;;;0.50;0.50;;;;;;;2.24;100.00;101106.56;5067535;28;20790;-66
2023/12/18 07:09:00;;;;;;;0.60;0.60;;;;;;;2.05;100.00;101077.31;5067076;28;20210;-66
2023/12/18 07:11:27;;;;;;;0.90;0.90;;;;;;;2.28;100.00;101110.91;5068559;28;20648;-66
2023/12/18 07:13:53;;;;;;;1.10;1.10;;;;;;;2.33;100.00;101116.97;5066581;28;20718;-66
2023/12/18 07:16:22;;;;;;;0.83;0.83;;;;;;;2.19;100.00;101110.63;5069250;28;20207;-66
2023/12/18 07:18:49;;;;;;;1.20;1.20;;;;;;;2.20;100.00;101114.91;5067670;28;20636;-67
2023/12/18 07:21:16;;;;;;;1.07;1.07;;;;;;;2.21;100.00;101101.41;5069270;28;20257;-66
2023/12/18 07:23:43;;;;;;;0.63;0.63;;;;;;;2.25;100.00;101103.22;5069812;28;20196;-66
2023/12/18 07:26:12;;;;;;;0.90;0.90;;;;;;;2.28;100.00;101103.31;5070052;28;20239;-66
2023/12/18 07:28:39;;;;;;;2.00;2.00;;;;;;;2.24;100.00;101101.50;5067042;28;20215;-67
2023/12/18 07:31:06;;;;;;;0.50;0.50;;;;;;;2.30;100.00;101099.16;5068317;28;20664;-67
2023/12/18 07:33:35;;;;;;;1.60;0.90;;;;;;;2.29;100.00;101105.91;5068537;28;20220;-68
2023/12/18 07:36:02;;;;;;;0.80;0.80;;;;;;;2.25;100.00;101113.34;5069293;28;20299;-68
2023/12/18 07:38:29;;;;;;;0.60;0.60;;;;;;;2.23;100.00;101113.28;5069839;28;20299;-68
2023/12/18 07:40:56;;;;;;;2.07;1.43;;;;;;;2.24;100.00;101119.22;5069589;28;20203;-68
2023/12/18 07:43:23;;;;;;;1.67;1.57;;;;;;;2.18;100.00;101121.56;5068964;28;20291;-68
2023/12/18 07:45:50;;;;;;;0.70;0.70;;;;;;;2.25;100.00;101128.53;5067552;28;20253;-68
2023/12/18 07:48:19;;;;;;;0.57;0.57;;;;;;;2.33;100.00;101127.09;5069930;28;20261;-67
2023/12/18 07:50:47;;;;;;;0.70;0.70;;;;;;;2.44;100.00;101128.28;5067149;28;20247;-67
2023/12/18 07:53:14;;;;;;;0.73;0.73;;;;;;;2.52;100.00;101104.06;5065303;28;20204;-68
2023/12/18 07:55:40;;;;;;;0.70;0.70;;;;;;;2.60;100.00;101095.00;5064873;28;20216;-66
2023/12/18 07:58:07;;;;;;;0.60;0.60;;;;;;;2.75;100.00;101104.72;5070761;28;20564;-68
2023/12/18 08:00:34;;;;;;;0.83;0.83;;;;;;;2.85;100.00;101104.16;5075450;28;20200;-67
2023/12/18 08:03:01;;;;;;;0.97;0.97;;;;;;;2.91;100.00;101107.72;5070654;28;20269;-67
2023/12/18 08:05:28;;;;;;;1.27;1.20;;;;;;;2.99;100.00;101101.19;5068011;28;20192;-68
2023/12/18 08:07:56;;;;;;;1.07;1.07;;;;;;;3.05;100.00;101092.91;5070777;28;20199;-68
2023/12/18 08:10:23;;;;;;;0.53;0.53;;;;;;;3.22;100.00;101103.50;5068102;28;20257;-68
2023/12/18 08:12:50;;;;;;;1.57;1.57;;;;;;;3.25;100.00;101101.91;5072559;28;20254;-67
2023/12/18 08:15:17;;;;;;;0.50;0.50;;;;;;;3.33;100.00;101104.66;5069972;28;20306;-68
2023/12/18 08:17:43;;;;;;;0.60;0.60;;;;;;;3.42;100.00;101105.75;5069535;28;20637;-67
2023/12/18 08:20:11;;;;;;;0.67;0.67;;;;;;;3.39;100.00;101084.53;5070654;28;20200;-68
2023/12/18 08:22:38;;;;;;;1.33;1.23;;;;;;;3.56;100.00;101101.84;5069773;28;20200;-68
2023/12/18 08:25:07;;;;;;;0.93;0.93;;;;;;;3.71;100.00;101103.94;5069484;28;20213;-67
2023/12/18 08:27:34;;;;;;;1.23;1.23;;;;;;;3.74;100.00;101104.00;5069844;28;20646;-67
2023/12/18 08:30:01;;;;;;;0.73;0.73;;;;;;;3.74;100.00;101091.31;5070021;28;20230;-67
2023/12/18 08:32:27;;;;;;;0.77;0.77;;;;;;;3.79;100.00;101087.22;5070250;28;20747;-68
2023/12/18 08:34:54;;;;;;;0.80;0.80;;;;;;;3.97;100.00;101091.88;5069821;28;20273;-67
2023/12/18 08:37:21;;;;;;;0.50;0.50;;;;;;;4.04;100.00;101084.41;5071000;28;20211;-67
2023/12/18 08:39:47;;;;;;;0.93;0.93;;;;;;;4.19;100.00;101086.47;5065290;28;20251;-67
2023/12/18 08:42:16;;;;;;;0.70;0.70;;;;;;;4.24;100.00;101078.13;5066449;28;20200;-67
2023/12/18 08:44:41;;;;;;;0.80;0.80;;;;;;;4.48;100.00;101076.94;5063387;28;20667;-69
2023/12/18 08:47:08;;;;;;;0.90;0.90;;;;;;;4.52;100.00;101081.25;5067397;28;20196;-70
2023/12/18 08:49:35;;;;;;;1.73;1.73;;;;;;;4.59;100.00;101071.25;5065999;28;20210;-68
2023/12/18 08:52:01;;;;;;;2.33;1.03;;;;;;;4.66;100.00;101073.09;5068458;28;20281;-68
2023/12/18 08:54:28;;;;;;;2.20;1.37;;;;;;;4.77;100.00;101065.69;5069451;28;20216;-68
2023/12/18 08:56:55;;;;;;;1.33;1.33;;;;;;;4.84;100.00;101056.50;5071156;28;20188;-68
2023/12/18 08:59:23;;;;;;;1.63;1.63;;;;;;;5.00;100.00;101059.38;5070273;28;20192;-68
2023/12/18 09:01:50;;;;;;;1.60;1.20;;;;;;;5.04;100.00;101053.50;5067188;28;20380;-68
2023/12/18 09:04:17;;;;;;;1.07;1.07;;;;;;;5.08;100.00;101027.31;5068811;28;20200;-68
2023/12/18 09:06:44;;;;;;;1.00;1.00;;;;;;;5.21;100.00;101034.31;5068264;28;20204;-68
2023/12/18 09:09:11;;;;;;;1.43;1.43;;;;;;;5.26;100.00;101032.75;5068522;28;20254;-68
2023/12/18 09:11:38;;;;;;;1.07;0.93;;;;;;;5.46;100.00;101029.66;5069519;28;20250;-68
2023/12/18 09:14:05;;;;;;;0.97;0.97;;;;;;;5.63;100.00;101023.16;5067571;28;20219;-68
2023/12/18 09:16:35;;;;;;;0.80;0.80;;;;;;;6.02;100.00;101033.97;5072234;28;20348;-68
2023/12/18 09:19:02;;;;;;;0.90;0.90;;;;;;;6.14;100.00;101018.84;5068608;28;20204;-67
2023/12/18 09:21:30;;;;;;;0.80;0.80;;;;;;;6.28;100.00;101024.13;5070909;28;20662;-67
2023/12/18 09:23:57;;;;;;;1.10;1.10;;;;;;;6.43;100.00;101019.22;5070897;28;20253;-67
2023/12/18 09:26:24;;;;;;;1.23;1.23;;;;;;;6.43;100.00;101015.84;5072667;28;20234;-67
2023/12/18 09:28:50;;;;;;;4.17;1.17;;;;;;;6.58;100.00;101010.91;5070303;28;20208;-67
2023/12/18 09:31:17;;;;;;;0.73;0.73;;;;;;;6.73;100.00;101017.03;5070937;28;20657;-67
2023/12/18 09:33:45;;;;;;;1.13;1.13;;;;;;;6.81;100.00;101009.50;5068787;28;20203;-67
2023/12/18 09:36:12;;;;;;;1.00;1.00;;;;;;;6.92;100.00;101007.88;5074806;28;20214;-67
2023/12/18 09:38:39;;;;;;;1.40;1.40;;;;;;;7.02;100.00;100999.50;5073377;28;20199;-67
2023/12/18 09:41:07;;;;;;;1.63;1.63;;;;;;;7.15;100.00;100998.78;5073896;28;20668;-67
2023/12/18 09:43:34;;;;;;;2.10;0.93;;;;;;;7.18;100.00;101001.34;5073826;28;20200;-66
2023/12/18 09:46:02;;;;;;;1.00;1.00;;;;;;;7.30;100.00;100986.16;5068197;28;20196;-67
2023/12/18 09:48:29;;;;;;;1.80;1.43;;;;;;;7.42;100.00;100994.75;5071215;28;20287;-67
2023/12/18 09:50:58;;;;;;;1.20;1.20;;;;;;;7.46;100.00;100965.88;5073737;28;20232;-67
2023/12/18 09:53:25;;;;;;;1.43;1.00;;;;;;;7.56;100.00;100977.88;5074124;28;20250;-67
2023/12/18 09:55:54;;;;;;;2.33;1.60;;;;;;;7.69;100.00;100972.00;5076744;28;20276;-67
2023/12/18 09:58:23;;;;;;;1.10;1.10;;;;;;;7.87;100.00;100964.44;5073558;28;20196;-67
2023/12/18 10:00:51;;;;;;;2.67;0.83;;;;;;;7.95;100.00;100959.38;5070820;28;20679;-66
2023/12/18 10:03:18;;;;;;;1.37;1.00;;;;;;;7.94;100.00;100953.41;5072725;28;20238;-66
2023/12/18 10:05:45;;;;;;;1.10;1.10;;;;;;;8.14;100.00;100949.25;5073026;28;20188;-66
2023/12/18 10:08:14;;;;;;;1.90;1.10;;;;;;;8.17;100.00;100953.53;5070404;28;20196;-66
2023/12/18 10:10:41;;;;;;;1.73;1.63;;;;;;;8.25;100.00;100942.50;5073222;28;20200;-64
2023/12/18 10:13:09;;;;;;;0.70;0.70;;;;;;;8.43;100.00;100936.63;5073075;28;20222;-65
2023/12/18 10:15:37;;;;;;;1.33;1.10;;;;;;;8.51;98.67;100929.81;5072939;28;20216;-66
2023/12/18 10:18:05;;;;;;;1.23;1.23;;;;;;;8.52;98.13;100938.34;5073285;28;20223;-66
2023/12/18 10:20:34;;;;;;;1.03;1.03;;;;;;;8.59;99.99;100927.31;5073000;28;20269;-66
2023/12/18 10:23:01;;;;;;;0.63;0.63;;;;;;;8.71;100.00;100927.31;5075377;28;20649;-66
2023/12/18 10:25:30;;;;;;;1.63;1.47;;;;;;;8.71;97.94;100917.94;5073095;28;20196;-66
2023/12/18 10:27:58;;;;;;;1.00;1.00;;;;;;;8.84;97.25;100927.34;5072855;28;20668;-66
2023/12/18 10:30:27;;;;;;;0.90;0.90;;;;;;;8.84;98.71;100918.81;5071414;28;20257;-66
2023/12/18 10:32:54;;;;;;;1.90;1.90;;;;;;;8.93;98.65;100918.81;5072779;28;20200;-65
2023/12/18 10:35:22;;;;;;;1.83;1.73;;;;;;;8.98;98.23;100922.25;5072412;28;20337;-66
2023/12/18 10:37:53;;;;;;;0.90;0.90;;;;;;;9.04;98.29;100912.00;5072183;28;20553;-66
2023/12/18 10:40:22;;;;;;;1.60;1.50;;;;;;;8.94;97.24;100889.84;5073323;28;20200;-65
2023/12/18 10:42:56;;;;;;;2.87;1.40;;;;;;;9.12;97.46;100910.28;5072341;28;20200;-66
2023/12/18 10:45:25;;;;;;;0.90;0.90;;;;;;;9.13;98.18;100891.53;5072583;28;20548;-67
2023/12/18 10:47:54;;;;;;;1.23;1.23;;;;;;;9.29;98.87;100893.22;5070898;28;20671;-66
2023/12/18 10:50:22;;;;;;;1.30;1.20;;;;;;;9.40;96.80;100883.81;5070537;28;20287;-66
2023/12/18 10:52:52;;;;;;;2.33;0.73;;;;;;;9.46;97.71;100871.03;5070982;28;20214;-66
2023/12/18 10:55:21;;;;;;;0.90;0.90;;;;;;;9.52;95.59;100867.59;5070716;28;20212;-66
2023/12/18 10:57:51;;;;;;;0.77;0.77;;;;;;;9.53;95.90;100855.66;5073851;28;20668;-66
2023/12/18 11:00:19;;;;;;;0.93;0.93;;;;;;;9.62;94.89;100865.84;5071238;28;20200;-66
2023/12/18 11:02:47;;;;;;;2.17;0.80;;;;;;;9.72;95.46;100864.97;5072066;28;20192;-67
2023/12/18 11:05:14;;;;;;;2.37;1.17;;;;;;;9.75;95.45;100859.84;5071472;28;20196;-67
2023/12/18 11:07:41;;;;;;;3.40;1.37;;;;;;;9.73;94.17;100848.72;5071439;28;20668;-66
2023/12/18 11:10:09;;;;;;;1.43;1.30;;;;;;;9.86;95.61;100858.94;5069742;28;20212;-66
2023/12/18 11:12:38;;;;;;;0.87;0.87;;;;;;;9.92;95.06;100858.03;5072625;28;20596;-66
2023/12/18 11:15:18;;;;;;;1.60;1.50;;;;;;;9.89;95.78;100835.88;5069909;28;20212;-66
2023/12/18 11:17:55;;;;;;;1.07;0.97;;;;;;;10.02;95.99;100841.78;5070391;28;20254;-66
2023/12/18 11:20:29;;;;;;;1.20;1.20;;;;;;;10.07;96.20;100834.09;5073926;28;20203;-66
2023/12/18 11:22:57;;;;;;;1.47;1.47;;;;;;;10.12;97.10;100837.47;5074889;28;20253;-66
2023/12/18 11:25:31;;;;;;;1.53;1.53;;;;;;;10.21;96.42;100828.03;5069588;28;20196;-65
2023/12/18 11:28:01;;;;;;;2.33;1.10;;;;;;;10.20;95.55;100816.09;5070842;28;20741;-66